sensor_id;sensor_type;location;lat;lon;timestamp;P1;durP1;ratioP1;P2;durP2;ratioP2
49774;SDS011;35670;50.462;30.624;2022-07-06T00:02:01;0.08;;;0.00;;
49774;SDS011;35670;50.462;30.624;2022-07-06T00:04:28;0.00;;;0.00;;
49774;SDS011;35670;50.462;30.624;2022-07-06T00:06:55;0.00;;;0.00;;
49774;SDS011;35670;50.462;30.624;2022-07-06T00:09:22;0.00;;;0.00;;
49774;SDS011;35670;50.462;30.624;2022-07-06T00:11:49;0.30;;;0.10;;
49774;SDS011;35670;50.462;30.624;2022-07-06T00:14:15;0.20;;;0.00;;
49774;SDS011;35670;50.462;30.624;2022-07-06T00:16:42;0.10;;;0.00;;
49774;SDS011;35670;50.462;30.624;2022-07-06T00:19:08;0.10;;;0.00;;
49774;SDS011;35670;50.462;30.624;2022-07-06T00:21:35;0.10;;;0.00;;
49774;SDS011;35670;50.462;30.624;2022-07-06T00:24:02;0.17;;;0.08;;
49774;SDS011;35670;50.462;30.624;2022-07-06T00:26:29;0.47;;;0.05;;
49774;SDS011;35670;50.462;30.624;2022-07-06T00:28:55;0.10;;;0.00;;
49774;SDS011;35670;50.462;30.624;2022-07-06T00:31:22;0.15;;;0.10;;
49774;SDS011;35670;50.462;30.624;2022-07-06T00:33:49;0.10;;;0.10;;
49774;SDS011;35670;50.462;30.624;2022-07-06T00:36:15;0.20;;;0.10;;
49774;SDS011;35670;50.462;30.624;2022-07-06T00:38:42;0.10;;;0.10;;
49774;SDS011;35670;50.462;30.624;2022-07-06T00:41:09;0.10;;;0.10;;
49774;SDS011;35670;50.462;30.624;2022-07-06T00:43:48;0.10;;;0.00;;
49774;SDS011;35670;50.462;30.624;2022-07-06T00:46:25;0.10;;;0.00;;
49774;SDS011;35670;50.462;30.624;2022-07-06T00:48:54;0.05;;;0.00;;
49774;SDS011;35670;50.462;30.624;2022-07-06T00:51:22;0.10;;;0.00;;
49774;SDS011;35670;50.462;30.624;2022-07-06T00:53:54;0.10;;;0.00;;
49774;SDS011;35670;50.462;30.624;2022-07-06T00:56:22;0.10;;;0.00;;
49774;SDS011;35670;50.462;30.624;2022-07-06T00:58:48;0.00;;;0.00;;
49774;SDS011;35670;50.462;30.624;2022-07-06T01:01:15;0.00;;;0.00;;
49774;SDS011;35670;50.462;30.624;2022-07-06T01:03:42;0.10;;;0.08;;
49774;SDS011;35670;50.462;30.624;2022-07-06T01:06:08;0.10;;;0.00;;
49774;SDS011;35670;50.462;30.624;2022-07-06T01:08:37;0.17;;;0.10;;
49774;SDS011;35670;50.462;30.624;2022-07-06T01:11:04;0.25;;;0.10;;
49774;SDS011;35670;50.462;30.624;2022-07-06T01:13:31;0.40;;;0.10;;
49774;SDS011;35670;50.462;30.624;2022-07-06T01:15:59;0.13;;;0.08;;
49774;SDS011;35670;50.462;30.624;2022-07-06T01:18:26;0.00;;;0.00;;
49774;SDS011;35670;50.462;30.624;2022-07-06T01:21:04;0.10;;;0.08;;
49774;SDS011;35670;50.462;30.624;2022-07-06T01:23:38;0.08;;;0.03;;
49774;SDS011;35670;50.462;30.624;2022-07-06T01:26:09;0.00;;;0.00;;
49774;SDS011;35670;50.462;30.624;2022-07-06T01:28:37;0.00;;;0.00;;
49774;SDS011;35670;50.462;30.624;2022-07-06T01:31:04;0.00;;;0.00;;
49774;SDS011;35670;50.462;30.624;2022-07-06T01:33:31;0.13;;;0.10;;
49774;SDS011;35670;50.462;30.624;2022-07-06T01:35:58;0.10;;;0.10;;
49774;SDS011;35670;50.462;30.624;2022-07-06T01:38:24;0.52;;;0.10;;
49774;SDS011;35670;50.462;30.624;2022-07-06T01:40:51;0.25;;;0.10;;
49774;SDS011;35670;50.462;30.624;2022-07-06T01:43:18;0.20;;;0.10;;
49774;SDS011;35670;50.462;30.624;2022-07-06T01:45:44;0.30;;;0.10;;
49774;SDS011;35670;50.462;30.624;2022-07-06T01:48:11;0.35;;;0.20;;
49774;SDS011;35670;50.462;30.624;2022-07-06T01:50:38;0.40;;;0.25;;
49774;SDS011;35670;50.462;30.624;2022-07-06T01:53:04;0.52;;;0.20;;
49774;SDS011;35670;50.462;30.624;2022-07-06T01:55:31;0.43;;;0.20;;
49774;SDS011;35670;50.462;30.624;2022-07-06T01:57:58;0.38;;;0.20;;
49774;SDS011;35670;50.462;30.624;2022-07-06T02:00:24;0.28;;;0.20;;
49774;SDS011;35670;50.462;30.624;2022-07-06T02:02:51;0.30;;;0.10;;
49774;SDS011;35670;50.462;30.624;2022-07-06T02:05:18;0.30;;;0.20;;
49774;SDS011;35670;50.462;30.624;2022-07-06T02:07:44;0.40;;;0.20;;
49774;SDS011;35670;50.462;30.624;2022-07-06T02:10:11;0.90;;;0.28;;
49774;SDS011;35670;50.462;30.624;2022-07-06T02:12:38;0.50;;;0.20;;
49774;SDS011;35670;50.462;30.624;2022-07-06T02:15:04;0.40;;;0.22;;
49774;SDS011;35670;50.462;30.624;2022-07-06T02:17:32;0.50;;;0.20;;
49774;SDS011;35670;50.462;30.624;2022-07-06T02:19:58;0.50;;;0.30;;
49774;SDS011;35670;50.462;30.624;2022-07-06T02:22:25;0.98;;;0.30;;
49774;SDS011;35670;50.462;30.624;2022-07-06T02:24:52;0.50;;;0.20;;
49774;SDS011;35670;50.462;30.624;2022-07-06T02:27:18;0.50;;;0.30;;
49774;SDS011;35670;50.462;30.624;2022-07-06T02:29:45;0.73;;;0.40;;
49774;SDS011;35670;50.462;30.624;2022-07-06T02:32:12;0.30;;;0.20;;
49774;SDS011;35670;50.462;30.624;2022-07-06T02:34:39;0.35;;;0.20;;
49774;SDS011;35670;50.462;30.624;2022-07-06T02:37:05;0.70;;;0.30;;
49774;SDS011;35670;50.462;30.624;2022-07-06T02:39:32;0.60;;;0.30;;
49774;SDS011;35670;50.462;30.624;2022-07-06T02:41:58;0.50;;;0.30;;
49774;SDS011;35670;50.462;30.624;2022-07-06T02:44:25;0.57;;;0.30;;
49774;SDS011;35670;50.462;30.624;2022-07-06T02:46:52;0.70;;;0.38;;
49774;SDS011;35670;50.462;30.624;2022-07-06T02:49:19;0.50;;;0.20;;
49774;SDS011;35670;50.462;30.624;2022-07-06T02:51:45;0.50;;;0.30;;
49774;SDS011;35670;50.462;30.624;2022-07-06T02:54:12;1.20;;;0.20;;
49774;SDS011;35670;50.462;30.624;2022-07-06T02:56:38;0.38;;;0.20;;
49774;SDS011;35670;50.462;30.624;2022-07-06T02:59:05;1.23;;;0.20;;
49774;SDS011;35670;50.462;30.624;2022-07-06T03:01:39;0.30;;;0.20;;
49774;SDS011;35670;50.462;30.624;2022-07-06T03:04:05;0.40;;;0.20;;
49774;SDS011;35670;50.462;30.624;2022-07-06T03:06:32;0.45;;;0.20;;
49774;SDS011;35670;50.462;30.624;2022-07-06T03:08:58;0.40;;;0.20;;
49774;SDS011;35670;50.462;30.624;2022-07-06T03:11:26;0.47;;;0.20;;
49774;SDS011;35670;50.462;30.624;2022-07-06T03:13:53;0.38;;;0.20;;
49774;SDS011;35670;50.462;30.624;2022-07-06T03:16:19;0.35;;;0.10;;
49774;SDS011;35670;50.462;30.624;2022-07-06T03:18:46;0.40;;;0.20;;
49774;SDS011;35670;50.462;30.624;2022-07-06T03:21:13;0.30;;;0.20;;
49774;SDS011;35670;50.462;30.624;2022-07-06T03:23:39;0.20;;;0.10;;
49774;SDS011;35670;50.462;30.624;2022-07-06T03:26:06;0.20;;;0.10;;
49774;SDS011;35670;50.462;30.624;2022-07-06T03:28:33;0.50;;;0.10;;
49774;SDS011;35670;50.462;30.624;2022-07-06T03:30:59;0.20;;;0.10;;
49774;SDS011;35670;50.462;30.624;2022-07-06T03:33:26;0.65;;;0.10;;
49774;SDS011;35670;50.462;30.624;2022-07-06T03:35:53;0.20;;;0.10;;
49774;SDS011;35670;50.462;30.624;2022-07-06T03:38:19;0.30;;;0.10;;
49774;SDS011;35670;50.462;30.624;2022-07-06T03:40:46;0.20;;;0.10;;
49774;SDS011;35670;50.462;30.624;2022-07-06T03:43:13;0.00;;;0.00;;
49774;SDS011;35670;50.462;30.624;2022-07-06T03:45:39;0.20;;;0.10;;
49774;SDS011;35670;50.462;30.624;2022-07-06T03:48:06;0.20;;;0.05;;
49774;SDS011;35670;50.462;30.624;2022-07-06T03:50:33;0.20;;;0.10;;
49774;SDS011;35670;50.462;30.624;2022-07-06T03:52:59;0.98;;;0.20;;
49774;SDS011;35670;50.462;30.624;2022-07-06T03:55:26;0.20;;;0.10;;
49774;SDS011;35670;50.462;30.624;2022-07-06T03:57:53;0.30;;;0.20;;
49774;SDS011;35670;50.462;30.624;2022-07-06T04:00:20;0.10;;;0.10;;
49774;SDS011;35670;50.462;30.624;2022-07-06T04:02:47;0.30;;;0.10;;
49774;SDS011;35670;50.462;30.624;2022-07-06T04:05:13;0.30;;;0.10;;
49774;SDS011;35670;50.462;30.624;2022-07-06T04:07:40;0.25;;;0.10;;
49774;SDS011;35670;50.462;30.624;2022-07-06T04:10:07;0.08;;;0.00;;
49774;SDS011;35670;50.462;30.624;2022-07-06T04:12:43;0.10;;;0.10;;
49774;SDS011;35670;50.462;30.624;2022-07-06T04:15:11;0.13;;;0.10;;
49774;SDS011;35670;50.462;30.624;2022-07-06T04:17:38;0.40;;;0.15;;
49774;SDS011;35670;50.462;30.624;2022-07-06T04:20:20;0.15;;;0.10;;
49774;SDS011;35670;50.462;30.624;2022-07-06T04:22:47;0.43;;;0.20;;
49774;SDS011;35670;50.462;30.624;2022-07-06T04:25:14;0.40;;;0.30;;
49774;SDS011;35670;50.462;30.624;2022-07-06T04:27:41;0.50;;;0.20;;
49774;SDS011;35670;50.462;30.624;2022-07-06T04:30:09;0.40;;;0.20;;
49774;SDS011;35670;50.462;30.624;2022-07-06T04:32:36;0.35;;;0.20;;
49774;SDS011;35670;50.462;30.624;2022-07-06T04:35:04;0.45;;;0.20;;
49774;SDS011;35670;50.462;30.624;2022-07-06T04:37:31;0.20;;;0.20;;
49774;SDS011;35670;50.462;30.624;2022-07-06T04:39:58;0.17;;;0.10;;
49774;SDS011;35670;50.462;30.624;2022-07-06T04:42:25;0.30;;;0.20;;
49774;SDS011;35670;50.462;30.624;2022-07-06T04:44:51;0.20;;;0.10;;
49774;SDS011;35670;50.462;30.624;2022-07-06T04:47:18;0.30;;;0.10;;
49774;SDS011;35670;50.462;30.624;2022-07-06T04:49:45;0.20;;;0.10;;
49774;SDS011;35670;50.462;30.624;2022-07-06T04:52:11;0.30;;;0.10;;
49774;SDS011;35670;50.462;30.624;2022-07-06T04:54:38;0.28;;;0.10;;
49774;SDS011;35670;50.462;30.624;2022-07-06T04:57:05;0.30;;;0.20;;
49774;SDS011;35670;50.462;30.624;2022-07-06T04:59:37;0.90;;;0.10;;
49774;SDS011;35670;50.462;30.624;2022-07-06T05:02:04;0.25;;;0.10;;
49774;SDS011;35670;50.462;30.624;2022-07-06T05:04:31;0.47;;;0.20;;
49774;SDS011;35670;50.462;30.624;2022-07-06T05:06:58;0.20;;;0.10;;
49774;SDS011;35670;50.462;30.624;2022-07-06T05:09:24;0.35;;;0.20;;
49774;SDS011;35670;50.462;30.624;2022-07-06T05:11:51;0.32;;;0.20;;
49774;SDS011;35670;50.462;30.624;2022-07-06T05:14:18;0.20;;;0.10;;
49774;SDS011;35670;50.462;30.624;2022-07-06T05:16:44;0.40;;;0.20;;
49774;SDS011;35670;50.462;30.624;2022-07-06T05:19:11;0.40;;;0.20;;
49774;SDS011;35670;50.462;30.624;2022-07-06T05:21:38;0.40;;;0.30;;
49774;SDS011;35670;50.462;30.624;2022-07-06T05:24:04;0.28;;;0.20;;
49774;SDS011;35670;50.462;30.624;2022-07-06T05:26:31;0.10;;;0.10;;
49774;SDS011;35670;50.462;30.624;2022-07-06T05:28:58;0.30;;;0.20;;
49774;SDS011;35670;50.462;30.624;2022-07-06T05:31:24;0.22;;;0.10;;
49774;SDS011;35670;50.462;30.624;2022-07-06T05:33:51;0.22;;;0.20;;
49774;SDS011;35670;50.462;30.624;2022-07-06T05:36:18;0.43;;;0.20;;
49774;SDS011;35670;50.462;30.624;2022-07-06T05:38:44;0.20;;;0.10;;
49774;SDS011;35670;50.462;30.624;2022-07-06T05:41:11;0.22;;;0.10;;
49774;SDS011;35670;50.462;30.624;2022-07-06T05:43:38;0.30;;;0.10;;
49774;SDS011;35670;50.462;30.624;2022-07-06T05:46:04;0.20;;;0.10;;
49774;SDS011;35670;50.462;30.624;2022-07-06T05:48:31;0.30;;;0.10;;
49774;SDS011;35670;50.462;30.624;2022-07-06T05:51:16;0.20;;;0.10;;
49774;SDS011;35670;50.462;30.624;2022-07-06T05:53:43;0.43;;;0.20;;
49774;SDS011;35670;50.462;30.624;2022-07-06T05:56:09;0.10;;;0.10;;
49774;SDS011;35670;50.462;30.624;2022-07-06T05:58:36;0.20;;;0.10;;
49774;SDS011;35670;50.462;30.624;2022-07-06T06:01:03;0.30;;;0.17;;
49774;SDS011;35670;50.462;30.624;2022-07-06T06:03:29;0.50;;;0.10;;
49774;SDS011;35670;50.462;30.624;2022-07-06T06:05:56;0.10;;;0.10;;
49774;SDS011;35670;50.462;30.624;2022-07-06T06:08:23;0.38;;;0.10;;
49774;SDS011;35670;50.462;30.624;2022-07-06T06:10:50;0.10;;;0.10;;
49774;SDS011;35670;50.462;30.624;2022-07-06T06:13:17;0.20;;;0.10;;
49774;SDS011;35670;50.462;30.624;2022-07-06T06:15:44;0.68;;;0.20;;
49774;SDS011;35670;50.462;30.624;2022-07-06T06:18:11;0.10;;;0.10;;
49774;SDS011;35670;50.462;30.624;2022-07-06T06:20:38;0.10;;;0.10;;
49774;SDS011;35670;50.462;30.624;2022-07-06T06:23:05;0.13;;;0.10;;
49774;SDS011;35670;50.462;30.624;2022-07-06T06:27:59;0.20;;;0.10;;
49774;SDS011;35670;50.462;30.624;2022-07-06T06:30:27;0.15;;;0.10;;
49774;SDS011;35670;50.462;30.624;2022-07-06T06:35:47;0.10;;;0.10;;
49774;SDS011;35670;50.462;30.624;2022-07-06T06:38:15;0.10;;;0.10;;
49774;SDS011;35670;50.462;30.624;2022-07-06T06:40:43;0.00;;;0.00;;
49774;SDS011;35670;50.462;30.624;2022-07-06T06:43:10;0.05;;;0.05;;
49774;SDS011;35670;50.462;30.624;2022-07-06T06:45:37;0.10;;;0.10;;
49774;SDS011;35670;50.462;30.624;2022-07-06T06:48:03;0.10;;;0.10;;
49774;SDS011;35670;50.462;30.624;2022-07-06T06:50:30;0.20;;;0.10;;
49774;SDS011;35670;50.462;30.624;2022-07-06T06:52:57;0.30;;;0.15;;
49774;SDS011;35670;50.462;30.624;2022-07-06T06:55:23;0.20;;;0.10;;
49774;SDS011;35670;50.462;30.624;2022-07-06T06:57:50;0.10;;;0.10;;
49774;SDS011;35670;50.462;30.624;2022-07-06T07:00:17;0.15;;;0.10;;
49774;SDS011;35670;50.462;30.624;2022-07-06T07:02:44;0.10;;;0.10;;
49774;SDS011;35670;50.462;30.624;2022-07-06T07:05:11;0.20;;;0.10;;
49774;SDS011;35670;50.462;30.624;2022-07-06T07:07:38;0.20;;;0.10;;
49774;SDS011;35670;50.462;30.624;2022-07-06T07:10:05;0.15;;;0.10;;
49774;SDS011;35670;50.462;30.624;2022-07-06T07:12:33;0.20;;;0.10;;
49774;SDS011;35670;50.462;30.624;2022-07-06T07:15:00;0.10;;;0.10;;
49774;SDS011;35670;50.462;30.624;2022-07-06T07:17:27;0.10;;;0.00;;
49774;SDS011;35670;50.462;30.624;2022-07-06T07:19:54;0.10;;;0.10;;
49774;SDS011;35670;50.462;30.624;2022-07-06T07:22:23;0.00;;;0.00;;
49774;SDS011;35670;50.462;30.624;2022-07-06T07:24:50;0.00;;;0.00;;
49774;SDS011;35670;50.462;30.624;2022-07-06T07:27:17;0.00;;;0.00;;
49774;SDS011;35670;50.462;30.624;2022-07-06T07:29:44;0.05;;;0.00;;
49774;SDS011;35670;50.462;30.624;2022-07-06T07:32:11;0.10;;;0.00;;
49774;SDS011;35670;50.462;30.624;2022-07-06T07:34:37;0.20;;;0.10;;
49774;SDS011;35670;50.462;30.624;2022-07-06T07:37:04;0.05;;;0.05;;
49774;SDS011;35670;50.462;30.624;2022-07-06T07:39:30;0.10;;;0.08;;
49774;SDS011;35670;50.462;30.624;2022-07-06T07:41:57;0.20;;;0.10;;
49774;SDS011;35670;50.462;30.624;2022-07-06T07:44:24;0.20;;;0.10;;
49774;SDS011;35670;50.462;30.624;2022-07-06T07:46:53;0.20;;;0.13;;
49774;SDS011;35670;50.462;30.624;2022-07-06T07:49:20;0.10;;;0.10;;
49774;SDS011;35670;50.462;30.624;2022-07-06T07:51:48;0.20;;;0.10;;
49774;SDS011;35670;50.462;30.624;2022-07-06T07:54:15;0.20;;;0.10;;
49774;SDS011;35670;50.462;30.624;2022-07-06T07:56:41;0.20;;;0.10;;
49774;SDS011;35670;50.462;30.624;2022-07-06T07:59:08;0.60;;;0.20;;
49774;SDS011;35670;50.462;30.624;2022-07-06T08:01:35;0.28;;;0.20;;
49774;SDS011;35670;50.462;30.624;2022-07-06T08:04:02;0.22;;;0.20;;
49774;SDS011;35670;50.462;30.624;2022-07-06T08:06:29;0.20;;;0.10;;
49774;SDS011;35670;50.462;30.624;2022-07-06T08:08:56;0.30;;;0.20;;
49774;SDS011;35670;50.462;30.624;2022-07-06T08:11:22;0.45;;;0.25;;
49774;SDS011;35670;50.462;30.624;2022-07-06T08:13:49;0.15;;;0.10;;
49774;SDS011;35670;50.462;30.624;2022-07-06T08:16:16;0.30;;;0.20;;
49774;SDS011;35670;50.462;30.624;2022-07-06T08:18:42;0.20;;;0.10;;
49774;SDS011;35670;50.462;30.624;2022-07-06T08:21:09;0.75;;;0.10;;
49774;SDS011;35670;50.462;30.624;2022-07-06T08:23:53;0.60;;;0.20;;
49774;SDS011;35670;50.462;30.624;2022-07-06T08:26:21;0.30;;;0.20;;
49774;SDS011;35670;50.462;30.624;2022-07-06T08:28:48;0.40;;;0.30;;
49774;SDS011;35670;50.462;30.624;2022-07-06T08:31:15;0.50;;;0.30;;
49774;SDS011;35670;50.462;30.624;2022-07-06T08:34:01;0.52;;;0.40;;
49774;SDS011;35670;50.462;30.624;2022-07-06T08:36:29;0.52;;;0.35;;
49774;SDS011;35670;50.462;30.624;2022-07-06T08:38:56;0.65;;;0.30;;
49774;SDS011;35670;50.462;30.624;2022-07-06T08:41:23;0.55;;;0.30;;
49774;SDS011;35670;50.462;30.624;2022-07-06T08:43:52;0.50;;;0.30;;
49774;SDS011;35670;50.462;30.624;2022-07-06T08:46:20;0.40;;;0.20;;
49774;SDS011;35670;50.462;30.624;2022-07-06T08:48:48;0.38;;;0.20;;
49774;SDS011;35670;50.462;30.624;2022-07-06T08:51:15;0.20;;;0.20;;
49774;SDS011;35670;50.462;30.624;2022-07-06T08:53:42;0.60;;;0.30;;
49774;SDS011;35670;50.462;30.624;2022-07-06T08:56:10;0.45;;;0.20;;
49774;SDS011;35670;50.462;30.624;2022-07-06T08:58:37;0.55;;;0.20;;
49774;SDS011;35670;50.462;30.624;2022-07-06T09:01:11;0.20;;;0.10;;
49774;SDS011;35670;50.462;30.624;2022-07-06T09:03:39;0.20;;;0.20;;
49774;SDS011;35670;50.462;30.624;2022-07-06T09:06:07;0.63;;;0.30;;
49774;SDS011;35670;50.462;30.624;2022-07-06T09:08:34;1.02;;;0.45;;
49774;SDS011;35670;50.462;30.624;2022-07-06T09:11:04;0.60;;;0.40;;
49774;SDS011;35670;50.462;30.624;2022-07-06T09:13:31;0.63;;;0.40;;
49774;SDS011;35670;50.462;30.624;2022-07-06T09:16:08;0.43;;;0.30;;
49774;SDS011;35670;50.462;30.624;2022-07-06T09:18:58;0.40;;;0.30;;
49774;SDS011;35670;50.462;30.624;2022-07-06T09:21:26;0.52;;;0.30;;
49774;SDS011;35670;50.462;30.624;2022-07-06T09:23:59;0.30;;;0.28;;
49774;SDS011;35670;50.462;30.624;2022-07-06T09:26:29;0.38;;;0.25;;
49774;SDS011;35670;50.462;30.624;2022-07-06T09:28:56;0.30;;;0.20;;
49774;SDS011;35670;50.462;30.624;2022-07-06T09:31:24;0.30;;;0.20;;
49774;SDS011;35670;50.462;30.624;2022-07-06T09:33:54;0.65;;;0.40;;
49774;SDS011;35670;50.462;30.624;2022-07-06T09:41:50;1.23;;;0.50;;
49774;SDS011;35670;50.462;30.624;2022-07-06T09:46:48;0.63;;;0.40;;
49774;SDS011;35670;50.462;30.624;2022-07-06T09:49:21;1.60;;;0.40;;
49774;SDS011;35670;50.462;30.624;2022-07-06T09:51:50;0.30;;;0.30;;
49774;SDS011;35670;50.462;30.624;2022-07-06T09:54:18;0.40;;;0.30;;
49774;SDS011;35670;50.462;30.624;2022-07-06T09:56:46;0.40;;;0.30;;
49774;SDS011;35670;50.462;30.624;2022-07-06T09:59:20;0.50;;;0.30;;
49774;SDS011;35670;50.462;30.624;2022-07-06T10:01:53;0.70;;;0.40;;
49774;SDS011;35670;50.462;30.624;2022-07-06T10:04:23;0.60;;;0.40;;
49774;SDS011;35670;50.462;30.624;2022-07-06T10:06:51;0.40;;;0.30;;
49774;SDS011;35670;50.462;30.624;2022-07-06T10:09:19;0.77;;;0.50;;
49774;SDS011;35670;50.462;30.624;2022-07-06T10:11:51;0.60;;;0.40;;
49774;SDS011;35670;50.462;30.624;2022-07-06T10:14:23;0.65;;;0.32;;
49774;SDS011;35670;50.462;30.624;2022-07-06T10:16:51;0.50;;;0.30;;
49774;SDS011;35670;50.462;30.624;2022-07-06T10:19:19;0.65;;;0.40;;
49774;SDS011;35670;50.462;30.624;2022-07-06T10:21:47;1.40;;;0.40;;
49774;SDS011;35670;50.462;30.624;2022-07-06T10:24:15;0.60;;;0.40;;
49774;SDS011;35670;50.462;30.624;2022-07-06T10:26:43;0.60;;;0.40;;
49774;SDS011;35670;50.462;30.624;2022-07-06T10:29:11;0.65;;;0.40;;
49774;SDS011;35670;50.462;30.624;2022-07-06T10:31:46;0.45;;;0.30;;
49774;SDS011;35670;50.462;30.624;2022-07-06T10:34:15;0.70;;;0.30;;
49774;SDS011;35670;50.462;30.624;2022-07-06T10:36:47;0.40;;;0.28;;
49774;SDS011;35670;50.462;30.624;2022-07-06T10:45:08;0.80;;;0.50;;
49774;SDS011;35670;50.462;30.624;2022-07-06T10:47:36;0.85;;;0.50;;
49774;SDS011;35670;50.462;30.624;2022-07-06T10:50:04;1.70;;;0.80;;
49774;SDS011;35670;50.462;30.624;2022-07-06T10:58:01;1.15;;;0.60;;
49774;SDS011;35670;50.462;30.624;2022-07-06T11:05:59;1.02;;;0.40;;
49774;SDS011;35670;50.462;30.624;2022-07-06T11:11:14;0.80;;;0.50;;
49774;SDS011;35670;50.462;30.624;2022-07-06T11:13:51;0.75;;;0.50;;
49774;SDS011;35670;50.462;30.624;2022-07-06T11:16:23;0.60;;;0.38;;
49774;SDS011;35670;50.462;30.624;2022-07-06T11:19:00;0.60;;;0.30;;
49774;SDS011;35670;50.462;30.624;2022-07-06T11:21:32;0.43;;;0.30;;
49774;SDS011;35670;50.462;30.624;2022-07-06T11:24:05;0.80;;;0.50;;
49774;SDS011;35670;50.462;30.624;2022-07-06T11:26:34;0.90;;;0.50;;
49774;SDS011;35670;50.462;30.624;2022-07-06T11:29:06;0.90;;;0.40;;
49774;SDS011;35670;50.462;30.624;2022-07-06T11:31:57;0.90;;;0.50;;
49774;SDS011;35670;50.462;30.624;2022-07-06T11:34:28;1.15;;;0.70;;
49774;SDS011;35670;50.462;30.624;2022-07-06T11:36:56;1.42;;;0.60;;
49774;SDS011;35670;50.462;30.624;2022-07-06T11:39:30;1.17;;;0.60;;
49774;SDS011;35670;50.462;30.624;2022-07-06T11:42:01;0.75;;;0.55;;
49774;SDS011;35670;50.462;30.624;2022-07-06T11:44:30;0.98;;;0.55;;
49774;SDS011;35670;50.462;30.624;2022-07-06T11:46:57;1.20;;;0.50;;
49774;SDS011;35670;50.462;30.624;2022-07-06T11:49:27;0.82;;;0.50;;
49774;SDS011;35670;50.462;30.624;2022-07-06T11:51:54;1.00;;;0.60;;
49774;SDS011;35670;50.462;30.624;2022-07-06T11:54:22;0.90;;;0.60;;
49774;SDS011;35670;50.462;30.624;2022-07-06T11:59:24;1.00;;;0.50;;
49774;SDS011;35670;50.462;30.624;2022-07-06T12:04:32;1.42;;;0.60;;
49774;SDS011;35670;50.462;30.624;2022-07-06T12:07:01;0.98;;;0.60;;
49774;SDS011;35670;50.462;30.624;2022-07-06T12:09:31;1.00;;;0.50;;
49774;SDS011;35670;50.462;30.624;2022-07-06T12:11:59;1.00;;;0.40;;
49774;SDS011;35670;50.462;30.624;2022-07-06T12:14:29;0.80;;;0.40;;
49774;SDS011;35670;50.462;30.624;2022-07-06T12:17:02;1.80;;;0.70;;
49774;SDS011;35670;50.462;30.624;2022-07-06T12:19:30;1.10;;;0.70;;
49774;SDS011;35670;50.462;30.624;2022-07-06T12:21:57;1.88;;;0.77;;
49774;SDS011;35670;50.462;30.624;2022-07-06T12:24:25;1.45;;;0.73;;
49774;SDS011;35670;50.462;30.624;2022-07-06T12:26:54;1.08;;;0.70;;
49774;SDS011;35670;50.462;30.624;2022-07-06T12:29:21;1.00;;;0.63;;
49774;SDS011;35670;50.462;30.624;2022-07-06T12:31:52;1.20;;;0.70;;
49774;SDS011;35670;50.462;30.624;2022-07-06T12:34:24;0.90;;;0.50;;
49774;SDS011;35670;50.462;30.624;2022-07-06T12:36:52;0.70;;;0.50;;
49774;SDS011;35670;50.462;30.624;2022-07-06T12:39:39;1.45;;;0.60;;
49774;SDS011;35670;50.462;30.624;2022-07-06T12:42:08;1.10;;;0.50;;
49774;SDS011;35670;50.462;30.624;2022-07-06T12:44:43;1.20;;;0.60;;
49774;SDS011;35670;50.462;30.624;2022-07-06T12:47:12;0.60;;;0.40;;
49774;SDS011;35670;50.462;30.624;2022-07-06T12:49:43;0.70;;;0.40;;
49774;SDS011;35670;50.462;30.624;2022-07-06T12:52:10;0.93;;;0.40;;
49774;SDS011;35670;50.462;30.624;2022-07-06T12:54:42;1.05;;;0.47;;
49774;SDS011;35670;50.462;30.624;2022-07-06T12:57:11;0.80;;;0.50;;
49774;SDS011;35670;50.462;30.624;2022-07-06T13:02:25;0.95;;;0.50;;
49774;SDS011;35670;50.462;30.624;2022-07-06T13:05:21;0.80;;;0.50;;
49774;SDS011;35670;50.462;30.624;2022-07-06T13:07:56;0.57;;;0.30;;
49774;SDS011;35670;50.462;30.624;2022-07-06T13:10:24;0.60;;;0.30;;
49774;SDS011;35670;50.462;30.624;2022-07-06T13:12:51;0.57;;;0.30;;
49774;SDS011;35670;50.462;30.624;2022-07-06T13:15:18;0.40;;;0.20;;
49774;SDS011;35670;50.462;30.624;2022-07-06T13:17:44;0.20;;;0.10;;
49774;SDS011;35670;50.462;30.624;2022-07-06T13:20:12;0.17;;;0.10;;
49774;SDS011;35670;50.462;30.624;2022-07-06T13:22:39;0.10;;;0.10;;
49774;SDS011;35670;50.462;30.624;2022-07-06T13:25:07;0.20;;;0.10;;
49774;SDS011;35670;50.462;30.624;2022-07-06T13:27:34;0.20;;;0.10;;
49774;SDS011;35670;50.462;30.624;2022-07-06T13:30:01;0.15;;;0.10;;
49774;SDS011;35670;50.462;30.624;2022-07-06T13:32:28;0.20;;;0.10;;
49774;SDS011;35670;50.462;30.624;2022-07-06T13:34:55;0.43;;;0.10;;
49774;SDS011;35670;50.462;30.624;2022-07-06T13:37:21;0.15;;;0.10;;
49774;SDS011;35670;50.462;30.624;2022-07-06T13:39:48;0.10;;;0.10;;
49774;SDS011;35670;50.462;30.624;2022-07-06T13:42:15;0.10;;;0.05;;
49774;SDS011;35670;50.462;30.624;2022-07-06T13:44:42;0.08;;;0.00;;
49774;SDS011;35670;50.462;30.624;2022-07-06T13:47:08;0.10;;;0.00;;
49774;SDS011;35670;50.462;30.624;2022-07-06T13:49:35;0.00;;;0.00;;
49774;SDS011;35670;50.462;30.624;2022-07-06T13:52:02;0.00;;;0.00;;
49774;SDS011;35670;50.462;30.624;2022-07-06T13:54:30;0.00;;;0.00;;
49774;SDS011;35670;50.462;30.624;2022-07-06T13:57:01;0.00;;;0.00;;
49774;SDS011;35670;50.462;30.624;2022-07-06T13:59:28;0.10;;;0.00;;
49774;SDS011;35670;50.462;30.624;2022-07-06T14:01:55;0.00;;;0.00;;
49774;SDS011;35670;50.462;30.624;2022-07-06T14:04:22;0.00;;;0.00;;
49774;SDS011;35670;50.462;30.624;2022-07-06T14:06:49;0.00;;;0.00;;
49774;SDS011;35670;50.462;30.624;2022-07-06T14:09:16;0.00;;;0.00;;
49774;SDS011;35670;50.462;30.624;2022-07-06T14:11:42;0.10;;;0.00;;
49774;SDS011;35670;50.462;30.624;2022-07-06T14:14:09;0.28;;;0.00;;
49774;SDS011;35670;50.462;30.624;2022-07-06T14:16:36;0.00;;;0.00;;
49774;SDS011;35670;50.462;30.624;2022-07-06T14:19:02;0.00;;;0.00;;
49774;SDS011;35670;50.462;30.624;2022-07-06T14:21:29;0.10;;;0.10;;
49774;SDS011;35670;50.462;30.624;2022-07-06T14:23:57;0.60;;;0.10;;
49774;SDS011;35670;50.462;30.624;2022-07-06T14:26:23;0.20;;;0.00;;
49774;SDS011;35670;50.462;30.624;2022-07-06T14:28:50;0.20;;;0.00;;
49774;SDS011;35670;50.462;30.624;2022-07-06T14:31:17;0.05;;;0.00;;
49774;SDS011;35670;50.462;30.624;2022-07-06T14:33:47;0.10;;;0.10;;
49774;SDS011;35670;50.462;30.624;2022-07-06T14:36:17;0.40;;;0.10;;
49774;SDS011;35670;50.462;30.624;2022-07-06T14:38:44;0.28;;;0.10;;
49774;SDS011;35670;50.462;30.624;2022-07-06T14:41:10;0.10;;;0.10;;
49774;SDS011;35670;50.462;30.624;2022-07-06T14:43:37;0.45;;;0.20;;
49774;SDS011;35670;50.462;30.624;2022-07-06T14:46:04;0.30;;;0.10;;
49774;SDS011;35670;50.462;30.624;2022-07-06T14:48:31;0.60;;;0.20;;
49774;SDS011;35670;50.462;30.624;2022-07-06T14:50:58;1.70;;;0.43;;
49774;SDS011;35670;50.462;30.624;2022-07-06T14:53:24;0.57;;;0.20;;
49774;SDS011;35670;50.462;30.624;2022-07-06T14:55:52;0.68;;;0.30;;
49774;SDS011;35670;50.462;30.624;2022-07-06T14:58:19;1.63;;;0.50;;
49774;SDS011;35670;50.462;30.624;2022-07-06T15:00:45;1.08;;;0.50;;
49774;SDS011;35670;50.462;30.624;2022-07-06T15:03:13;1.13;;;0.40;;
49774;SDS011;35670;50.462;30.624;2022-07-06T15:05:40;0.70;;;0.28;;
49774;SDS011;35670;50.462;30.624;2022-07-06T15:08:09;0.50;;;0.22;;
49774;SDS011;35670;50.462;30.624;2022-07-06T15:10:36;0.30;;;0.10;;
49774;SDS011;35670;50.462;30.624;2022-07-06T15:13:03;0.20;;;0.10;;
49774;SDS011;35670;50.462;30.624;2022-07-06T15:15:29;0.47;;;0.20;;
49774;SDS011;35670;50.462;30.624;2022-07-06T15:18:16;0.40;;;0.20;;
49774;SDS011;35670;50.462;30.624;2022-07-06T15:20:43;0.20;;;0.10;;